createdAt,value
2023-03-21T00:06:09.239Z,100.00
2023-03-21T00:16:20.305Z,100.00
2023-03-21T00:26:27.112Z,100.00
2023-03-21T00:36:30.718Z,100.00
2023-03-21T00:46:45.563Z,100.00
2023-03-21T00:57:00.946Z,100.00
2023-03-21T01:07:04.369Z,100.00
2023-03-21T01:17:08.207Z,100.00
2023-03-21T01:27:11.845Z,100.00
2023-03-21T01:37:15.357Z,100.00
2023-03-21T01:47:18.815Z,100.00
2023-03-21T01:57:43.614Z,100.00
2023-03-21T02:07:55.229Z,100.00
2023-03-21T02:18:48.151Z,100.00
2023-03-21T02:29:22.098Z,100.00
2023-03-21T02:40:11.405Z,100.00
2023-03-21T02:50:22.167Z,100.00
2023-03-21T03:00:30.939Z,100.00
2023-03-21T03:10:58.049Z,100.00
2023-03-21T03:21:22.922Z,100.00
2023-03-21T03:31:32.504Z,100.00
2023-03-21T03:42:05.865Z,100.00
2023-03-21T03:52:18.431Z,100.00
2023-03-21T04:02:22.191Z,100.00
2023-03-21T04:12:26.082Z,100.00
2023-03-21T04:22:29.543Z,100.00
2023-03-21T04:32:34.195Z,100.00
2023-03-21T04:42:37.828Z,100.00
2023-03-21T04:52:41.412Z,100.00
2023-03-21T05:02:45.188Z,100.00
2023-03-21T05:12:48.951Z,100.00
2023-03-21T05:22:52.556Z,100.00
2023-03-21T05:32:56.477Z,100.00
2023-03-21T05:42:59.836Z,100.00
2023-03-21T05:53:03.306Z,100.00
2023-03-21T06:03:07.189Z,100.00
2023-03-21T06:13:09.830Z,100.00
2023-03-21T06:23:12.434Z,100.00
2023-03-21T06:33:15.119Z,100.00
2023-03-21T06:43:18.519Z,100.00
2023-03-21T06:53:25.396Z,100.00
2023-03-21T07:03:28.503Z,100.00
2023-03-21T07:13:32.264Z,100.00
2023-03-21T07:23:35.126Z,100.00
2023-03-21T07:33:37.981Z,100.00
2023-03-21T07:43:40.894Z,100.00
2023-03-21T07:53:44.283Z,100.00
2023-03-21T08:03:48.660Z,100.00
2023-03-21T08:13:51.970Z,100.00
2023-03-21T08:23:54.941Z,100.00
2023-03-21T08:33:57.660Z,100.00
2023-03-21T08:44:00.313Z,100.00
2023-03-21T08:54:02.952Z,100.00
2023-03-21T09:04:08.346Z,100.00
2023-03-21T09:14:12.241Z,100.00
2023-03-21T09:24:16.249Z,100.00
2023-03-21T09:34:19.194Z,100.00
2023-03-21T09:44:46.744Z,100.00
2023-03-21T09:54:50.319Z,100.00
2023-03-21T10:04:53.284Z,94.16
2023-03-21T10:14:59.332Z,87.50
2023-03-21T10:25:01.759Z,88.09
2023-03-21T10:35:05.460Z,83.45
2023-03-21T10:45:17.450Z,69.88
2023-03-21T10:55:29.975Z,68.52
2023-03-21T11:05:42.173Z,65.14
2023-03-21T11:16:13.298Z,66.56
2023-03-21T11:26:30.519Z,62.68
2023-03-21T11:36:38.510Z,60.50
2023-03-21T11:46:41.730Z,60.33
2023-03-21T11:56:54.420Z,63.12
2023-03-21T12:07:12.664Z,59.84
2023-03-21T12:17:24.890Z,58.54
2023-03-21T12:27:30.113Z,58.60
2023-03-21T12:37:41.613Z,58.07
2023-03-21T12:47:51.848Z,58.26
2023-03-21T12:58:06.359Z,53.31
2023-03-21T13:08:17.757Z,54.13
2023-03-21T13:18:45.073Z,49.13
2023-03-21T13:28:48.951Z,49.38
2023-03-21T13:38:54.332Z,51.00
2023-03-21T13:49:08.626Z,49.52
2023-03-21T13:59:13.229Z,48.27
2023-03-21T14:09:34.216Z,46.60
2023-03-21T14:19:36.958Z,46.62
2023-03-21T14:29:40.138Z,48.55
2023-03-21T14:39:43.194Z,49.68
2023-03-21T14:49:46.422Z,48.69
2023-03-21T14:59:53.113Z,49.08
2023-03-21T15:09:58.296Z,51.79
2023-03-21T15:20:01.555Z,49.89
2023-03-21T15:30:05.054Z,52.40
2023-03-21T15:40:21.168Z,52.36
2023-03-21T15:50:29.800Z,53.01
2023-03-21T16:00:44.471Z,55.17
2023-03-21T16:10:49.454Z,58.30
2023-03-21T16:20:53.913Z,59.12
2023-03-21T16:30:56.840Z,61.35
2023-03-21T16:41:01.640Z,63.50
2023-03-21T16:51:04.560Z,64.94
2023-03-21T17:01:12.218Z,68.27
2023-03-21T17:11:18.451Z,72.59
2023-03-21T17:21:27.622Z,74.58
2023-03-21T17:31:35.043Z,79.13
2023-03-21T17:41:38.030Z,78.56
2023-03-21T17:51:41.856Z,81.89
2023-03-21T18:01:45.545Z,85.75
2023-03-21T18:11:48.501Z,86.11
2023-03-21T18:21:51.807Z,88.91
2023-03-21T18:32:05.591Z,92.19
2023-03-21T18:42:16.627Z,96.89
2023-03-21T18:52:20.201Z,100.00
2023-03-21T19:02:23.248Z,100.00
2023-03-21T19:12:27.244Z,100.00
2023-03-21T19:22:30.659Z,100.00
2023-03-21T19:32:33.916Z,100.00
2023-03-21T19:42:37.443Z,100.00
2023-03-21T19:52:40.143Z,100.00
2023-03-21T20:02:46.129Z,100.00
2023-03-21T20:12:49.119Z,100.00
2023-03-21T20:23:11.118Z,100.00
2023-03-21T20:33:15.041Z,100.00
2023-03-21T20:44:06.449Z,100.00
2023-03-21T20:53:41.113Z,100.00
2023-03-21T21:03:45.143Z,100.00
2023-03-21T21:13:47.905Z,100.00
2023-03-21T21:23:51.453Z,100.00
2023-03-21T21:33:54.963Z,100.00
2023-03-21T21:43:57.689Z,100.00
2023-03-21T21:54:04.306Z,100.00
2023-03-21T22:04:08.533Z,100.00
2023-03-21T22:14:11.177Z,100.00
2023-03-21T22:24:13.657Z,100.00
2023-03-21T22:34:16.524Z,100.00
2023-03-21T22:44:19.116Z,100.00
2023-03-21T22:54:21.969Z,100.00
2023-03-21T23:04:27.303Z,100.00
2023-03-21T23:14:29.851Z,100.00
2023-03-21T23:24:32.405Z,100.00
2023-03-21T23:34:34.849Z,100.00
2023-03-21T23:44:37.592Z,100.00
2023-03-21T23:54:40.048Z,100.00
